Time,TemperatureF,DewpointF,PressureIn,WindDirection,WindDirectionDegrees,WindSpeedMPH,WindSpeedGustMPH,Humidity,HourlyPrecipIn,Conditions,Clouds,dailyrainin,SolarRadiationWatts/m^2,SoftwareType,DateUTC
2013-04-11 09:43:00,68.0,55.0,-100.00,SSW,209,4.0,6.0,63,-99.99,,,0.00,267.000000,,2013-04-11 13:43:00,
2013-04-11 09:54:00,68.0,55.0,-100.00,SSW,209,4.0,6.0,63,-99.99,,,0.00,267.000000,,2013-04-11 13:54:00,
2013-04-11 10:03:00,68.0,55.0,-100.00,SSW,209,4.0,6.0,63,-99.99,,,0.00,267.000000,,2013-04-11 14:03:00,
2013-04-11 10:12:00,68.0,55.0,-100.00,SSW,209,4.0,6.0,63,-99.99,,,0.00,267.000000,,2013-04-11 14:12:00,
2013-04-11 10:43:00,74.0,54.0,-100.00,SW,223,3.0,6.0,50,0.00,,,0.00,408.000000,,2013-04-11 14:43:00,
2013-04-11 10:53:00,74.0,54.0,-100.00,SW,223,3.0,6.0,50,0.00,,,0.00,408.000000,,2013-04-11 14:53:00,
2013-04-11 11:02:00,74.0,54.0,-100.00,SW,223,3.0,6.0,50,0.00,,,0.00,408.000000,,2013-04-11 15:02:00,
2013-04-11 11:12:00,74.0,54.0,-100.00,SW,223,3.0,6.0,50,0.00,,,0.00,408.000000,,2013-04-11 15:12:00,
2013-04-11 13:43:00,83.0,52.0,-100.00,West,267,4.0,12.0,35,-99.99,,,0.00,534.000000,,2013-04-11 17:43:00,
2013-04-11 13:53:00,83.0,52.0,-100.00,West,267,4.0,12.0,35,-99.99,,,0.00,534.000000,,2013-04-11 17:53:00,
2013-04-11 14:03:00,83.0,52.0,-100.00,West,267,4.0,12.0,35,-99.99,,,0.00,534.000000,,2013-04-11 18:03:00,
2013-04-11 14:13:00,83.0,52.0,-100.00,West,267,4.0,12.0,35,-99.99,,,0.00,534.000000,,2013-04-11 18:13:00,
2013-04-11 14:43:00,83.0,53.0,-100.00,West,276,7.0,16.0,36,0.00,,,0.00,577.000000,,2013-04-11 18:43:00,
2013-04-11 14:53:00,83.0,53.0,-100.00,West,276,7.0,16.0,36,0.00,,,0.00,577.000000,,2013-04-11 18:53:00,
2013-04-11 15:04:00,83.0,53.0,-100.00,West,276,7.0,16.0,36,0.00,,,0.00,577.000000,,2013-04-11 19:04:00,
2013-04-11 15:14:00,83.0,53.0,-100.00,West,276,7.0,16.0,36,0.00,,,0.00,577.000000,,2013-04-11 19:14:00,
2013-04-11 15:43:00,86.0,51.0,-100.00,NNW,329,3.0,13.0,30,0.00,,,0.00,463.000000,,2013-04-11 19:43:00,
2013-04-11 15:53:00,86.0,51.0,-100.00,NNW,329,3.0,13.0,30,0.00,,,0.00,463.000000,,2013-04-11 19:53:00,
2013-04-11 16:03:00,86.0,51.0,-100.00,NNW,329,3.0,13.0,30,0.00,,,0.00,463.000000,,2013-04-11 20:03:00,
2013-04-11 16:13:00,86.0,51.0,-100.00,NNW,329,3.0,13.0,30,0.00,,,0.00,463.000000,,2013-04-11 20:13:00,
2013-04-11 16:43:00,82.0,52.0,-100.00,East,92,3.0,12.0,35,0.00,,,0.00,279.000000,,2013-04-11 20:43:00,
2013-04-11 16:53:00,82.0,52.0,-100.00,East,92,3.0,12.0,35,0.00,,,0.00,279.000000,,2013-04-11 20:53:00,
2013-04-11 17:03:00,82.0,52.0,-100.00,East,92,3.0,12.0,35,0.00,,,0.00,279.000000,,2013-04-11 21:03:00,
2013-04-11 17:12:00,82.0,52.0,-100.00,East,92,3.0,12.0,35,0.00,,,0.00,279.000000,,2013-04-11 21:12:00,
2013-04-11 17:43:00,81.0,52.0,-100.00,ENE,76,2.0,7.0,36,0.00,,,0.00,127.000000,,2013-04-11 21:43:00,
2013-04-11 17:54:00,81.0,52.0,-100.00,ENE,76,2.0,7.0,36,0.00,,,0.00,127.000000,,2013-04-11 21:54:00,
2013-04-11 18:03:00,81.0,52.0,-100.00,ENE,76,2.0,7.0,36,0.00,,,0.00,127.000000,,2013-04-11 22:03:00,
2013-04-11 18:13:00,81.0,52.0,-100.00,ENE,76,2.0,7.0,36,0.00,,,0.00,127.000000,,2013-04-11 22:13:00,
2013-04-11 18:44:00,79.0,54.0,-100.00,South,178,3.0,9.0,42,0.00,,,0.00,75.000000,,2013-04-11 22:44:00,
2013-04-11 18:53:00,79.0,54.0,-100.00,South,178,3.0,9.0,42,0.00,,,0.00,75.000000,,2013-04-11 22:53:00,
2013-04-11 19:04:00,79.0,54.0,-100.00,South,178,3.0,9.0,42,0.00,,,0.00,75.000000,,2013-04-11 23:04:00,
2013-04-11 19:13:00,79.0,54.0,-100.00,South,178,3.0,9.0,42,0.00,,,0.00,75.000000,,2013-04-11 23:13:00,
2013-04-11 19:33:00,74.0,56.0,-100.00,NE,51,4.0,10.0,54,0.00,,,0.00,49.000000,,2013-04-11 23:33:00,
2013-04-11 19:43:00,74.0,56.0,-100.00,NE,51,4.0,10.0,54,0.00,,,0.00,49.000000,,2013-04-11 23:43:00,
2013-04-11 19:54:00,74.0,56.0,-100.00,NE,51,4.0,10.0,54,0.00,,,0.00,49.000000,,2013-04-11 23:54:00,
2013-04-11 20:02:00,74.0,56.0,-100.00,NE,51,4.0,10.0,54,0.00,,,0.00,49.000000,,2013-04-12 00:02:00,
2013-04-11 20:12:00,74.0,56.0,-100.00,NE,51,4.0,10.0,54,0.00,,,0.00,49.000000,,2013-04-12 00:12:00,